createdAt,value
2022-07-25T00:02:10.061Z,84.60
2022-07-25T00:04:37.117Z,85.20
2022-07-25T00:07:06.239Z,84.90
2022-07-25T00:09:33.070Z,84.00
2022-07-25T00:12:02.187Z,85.00
2022-07-25T00:14:30.916Z,84.80
2022-07-25T00:17:02.239Z,84.50
2022-07-25T00:19:36.290Z,84.90
2022-07-25T00:22:03.585Z,84.20
2022-07-25T00:24:30.454Z,85.00
2022-07-25T00:26:59.928Z,84.80
2022-07-25T00:29:31.532Z,84.60
2022-07-25T00:31:58.447Z,85.20
2022-07-25T00:34:25.283Z,85.40
2022-07-25T00:36:52.157Z,85.40
2022-07-25T00:39:18.987Z,84.70
2022-07-25T00:41:45.882Z,85.90
2022-07-25T00:44:24.702Z,85.10
2022-07-25T00:46:54.611Z,85.20
2022-07-25T00:49:23.474Z,85.80
2022-07-25T00:51:51.767Z,85.70
2022-07-25T00:54:18.709Z,85.90
2022-07-25T00:56:48.922Z,85.60
2022-07-25T00:59:18.040Z,86.30
2022-07-25T01:01:48.072Z,85.30
2022-07-25T01:04:20.009Z,85.40
2022-07-25T01:06:51.523Z,85.50
2022-07-25T01:09:20.948Z,85.80
2022-07-25T01:11:47.814Z,85.30
2022-07-25T01:14:14.660Z,85.50
2022-07-25T01:16:41.529Z,86.00
2022-07-25T01:19:08.672Z,85.90
2022-07-25T01:21:43.301Z,86.00
2022-07-25T01:24:14.702Z,86.10
2022-07-25T01:26:41.562Z,86.00
2022-07-25T01:29:08.481Z,86.30
2022-07-25T01:31:35.496Z,86.70
2022-07-25T01:34:02.432Z,86.30
2022-07-25T01:36:31.785Z,86.80
2022-07-25T01:39:01.169Z,86.90
2022-07-25T01:41:30.382Z,86.90
2022-07-25T01:43:57.451Z,87.50
2022-07-25T01:46:26.626Z,86.70
2022-07-25T01:48:53.610Z,87.10
2022-07-25T01:51:23.085Z,87.40
2022-07-25T01:53:53.454Z,87.10
2022-07-25T01:56:22.460Z,87.50
2022-07-25T01:58:51.960Z,87.70
2022-07-25T02:01:21.660Z,87.20
2022-07-25T02:03:48.989Z,88.90
2022-07-25T02:06:19.502Z,88.00
2022-07-25T02:08:49.047Z,87.60
2022-07-25T02:11:16.929Z,87.90
2022-07-25T02:13:44.579Z,88.10
2022-07-25T02:16:13.939Z,88.30
2022-07-25T02:18:41.303Z,87.80
2022-07-25T02:21:14.392Z,88.00
2022-07-25T02:23:42.470Z,88.50
2022-07-25T02:26:09.295Z,88.00
2022-07-25T02:28:36.173Z,88.30
2022-07-25T02:31:05.453Z,88.20
2022-07-25T02:33:32.451Z,88.20
2022-07-25T02:35:59.385Z,88.20
2022-07-25T02:38:26.326Z,89.40
2022-07-25T02:40:53.658Z,88.60
2022-07-25T02:43:20.975Z,88.30
2022-07-25T02:45:47.900Z,88.50
2022-07-25T02:48:14.933Z,88.50
2022-07-25T02:50:44.216Z,88.90
2022-07-25T02:53:13.528Z,89.10
2022-07-25T02:55:40.356Z,88.70
2022-07-25T02:58:07.187Z,88.60
2022-07-25T03:00:36.303Z,89.20
2022-07-25T03:03:03.459Z,89.10
2022-07-25T03:05:33.275Z,89.70
2022-07-25T03:08:00.257Z,89.10
2022-07-25T03:10:27.256Z,88.80
2022-07-25T03:12:54.112Z,89.40
2022-07-25T03:15:20.978Z,88.90
2022-07-25T03:17:47.807Z,89.20
2022-07-25T03:20:14.610Z,89.30
2022-07-25T03:22:41.578Z,89.80
2022-07-25T03:25:15.850Z,89.20
2022-07-25T03:27:48.571Z,89.20
2022-07-25T03:30:15.324Z,89.40
2022-07-25T03:32:44.662Z,89.40
2022-07-25T03:35:13.903Z,89.50
2022-07-25T03:37:40.831Z,89.40
2022-07-25T03:40:10.251Z,89.40
2022-07-25T03:42:37.276Z,89.50
2022-07-25T03:45:09.575Z,90.00
2022-07-25T03:47:36.626Z,90.00
2022-07-25T03:50:03.854Z,90.30
2022-07-25T03:52:33.178Z,89.50
2022-07-25T03:55:00.042Z,89.40
2022-07-25T03:57:29.181Z,89.40
2022-07-25T03:59:55.959Z,89.80
2022-07-25T04:02:22.876Z,89.60
2022-07-25T04:04:49.941Z,89.70
2022-07-25T04:07:16.720Z,89.00
2022-07-25T04:09:45.889Z,89.50
2022-07-25T04:12:15.000Z,89.40
2022-07-25T04:14:41.807Z,90.00
2022-07-25T04:17:08.713Z,90.00
2022-07-25T04:19:36.536Z,90.00
2022-07-25T04:22:03.386Z,89.30
2022-07-25T04:24:30.243Z,90.00
2022-07-25T04:26:57.061Z,90.30
2022-07-25T04:29:29.103Z,89.50
2022-07-25T04:31:58.514Z,90.00
2022-07-25T04:34:28.021Z,90.00
2022-07-25T04:36:59.521Z,90.00
2022-07-25T04:39:26.425Z,89.90
2022-07-25T04:41:55.648Z,90.00
2022-07-25T04:44:22.725Z,90.00
2022-07-25T04:46:49.524Z,89.70
2022-07-25T04:49:16.430Z,90.00
2022-07-25T04:51:43.388Z,90.00
2022-07-25T04:54:10.488Z,89.80
2022-07-25T04:56:39.738Z,90.10
2022-07-25T04:59:08.717Z,89.90
2022-07-25T05:01:38.788Z,89.70
2022-07-25T05:04:05.972Z,90.00
2022-07-25T05:06:33.260Z,90.10
2022-07-25T05:09:00.345Z,90.20
2022-07-25T05:11:27.213Z,89.80
2022-07-25T05:13:54.042Z,90.00
2022-07-25T05:16:23.065Z,88.50
2022-07-25T05:18:50.017Z,88.20
2022-07-25T05:21:19.467Z,88.70
2022-07-25T05:23:46.300Z,88.90
2022-07-25T05:26:18.104Z,89.10
2022-07-25T05:28:45.141Z,89.10
2022-07-25T05:31:14.406Z,89.50
2022-07-25T05:33:42.625Z,89.40
2022-07-25T05:36:09.663Z,89.40
2022-07-25T05:38:37.119Z,89.10
2022-07-25T05:41:06.498Z,89.60
2022-07-25T05:43:33.358Z,90.00
2022-07-25T05:46:03.999Z,89.30
2022-07-25T05:48:31.827Z,89.70
2022-07-25T05:50:59.446Z,90.10
2022-07-25T05:53:26.420Z,89.80
2022-07-25T05:55:58.306Z,90.10
2022-07-25T05:58:29.678Z,90.00
2022-07-25T06:00:58.382Z,90.40
2022-07-25T06:03:25.685Z,89.60
2022-07-25T06:05:52.634Z,89.80
2022-07-25T06:08:19.419Z,90.00
2022-07-25T06:10:51.763Z,90.00
2022-07-25T06:13:18.883Z,90.50
2022-07-25T06:15:47.600Z,90.00
2022-07-25T06:18:16.879Z,90.20
2022-07-25T06:20:43.674Z,90.00
2022-07-25T06:23:12.660Z,90.40
2022-07-25T06:25:42.152Z,90.40
2022-07-25T06:28:10.585Z,90.30
2022-07-25T06:30:37.959Z,90.40
2022-07-25T06:33:04.869Z,90.30
2022-07-25T06:35:31.790Z,90.10
2022-07-25T06:38:03.260Z,90.20
2022-07-25T06:40:32.453Z,90.30
2022-07-25T06:42:59.332Z,90.10
2022-07-25T06:45:26.355Z,90.40
2022-07-25T06:47:55.396Z,90.20
2022-07-25T06:50:22.326Z,89.60
2022-07-25T06:52:49.269Z,90.30
2022-07-25T06:55:16.374Z,90.20
2022-07-25T06:57:43.795Z,89.90
2022-07-25T07:00:13.022Z,89.90
2022-07-25T07:02:58.211Z,89.90
2022-07-25T07:05:29.325Z,90.00
2022-07-25T07:07:59.418Z,90.00
2022-07-25T07:10:29.001Z,90.10
2022-07-25T07:13:10.855Z,90.00
2022-07-25T07:15:39.903Z,90.10
2022-07-25T07:18:07.320Z,89.80
2022-07-25T07:20:34.610Z,89.60
2022-07-25T07:23:03.806Z,89.10
2022-07-25T07:25:30.816Z,90.30
2022-07-25T07:27:57.791Z,90.10
2022-07-25T07:30:37.662Z,89.60
2022-07-25T07:33:14.175Z,90.70
2022-07-25T07:35:44.262Z,89.70
2022-07-25T07:38:11.601Z,90.00
2022-07-25T07:40:40.891Z,89.90
2022-07-25T07:43:11.059Z,89.80
2022-07-25T07:45:41.059Z,89.70
2022-07-25T07:48:08.101Z,90.00
2022-07-25T07:50:37.079Z,89.40
2022-07-25T07:53:04.131Z,90.30
2022-07-25T07:55:45.519Z,89.80
2022-07-25T07:58:17.390Z,90.90
2022-07-25T08:00:48.952Z,89.70
2022-07-25T08:03:21.539Z,90.10
2022-07-25T08:05:53.311Z,89.10
2022-07-25T08:08:26.642Z,90.10
2022-07-25T08:10:58.944Z,89.00
2022-07-25T08:13:31.356Z,89.10
2022-07-25T08:16:03.349Z,88.00
2022-07-25T08:18:32.695Z,87.70
2022-07-25T08:21:06.011Z,87.50
2022-07-25T08:23:35.433Z,88.10
2022-07-25T08:26:02.528Z,87.00
2022-07-25T08:28:29.487Z,87.40
2022-07-25T08:30:56.608Z,88.40
2022-07-25T08:33:23.551Z,87.30
2022-07-25T08:35:53.500Z,86.70
2022-07-25T08:38:28.064Z,87.30
2022-07-25T08:40:56.024Z,87.50
2022-07-25T08:43:25.364Z,86.80
2022-07-25T08:45:55.857Z,86.10
2022-07-25T08:48:29.762Z,85.40
2022-07-25T08:50:57.482Z,82.90
2022-07-25T08:53:34.013Z,81.70
2022-07-25T08:56:12.245Z,81.00
2022-07-25T08:58:41.912Z,80.40
2022-07-25T09:01:14.219Z,81.20
2022-07-25T09:03:43.098Z,81.40
2022-07-25T09:06:19.843Z,77.80
2022-07-25T09:08:58.156Z,76.90
2022-07-25T09:11:37.830Z,76.80
2022-07-25T09:14:08.900Z,76.50
2022-07-25T09:16:44.982Z,76.10
2022-07-25T09:19:25.856Z,74.20
2022-07-25T09:22:04.449Z,73.90
2022-07-25T09:24:34.650Z,72.70
2022-07-25T09:27:09.390Z,74.60
2022-07-25T09:29:42.747Z,73.40
2022-07-25T09:32:17.157Z,71.90
2022-07-25T09:34:46.870Z,75.80
2022-07-25T09:37:19.433Z,70.30
2022-07-25T09:39:48.303Z,69.40
2022-07-25T09:42:24.319Z,68.60
2022-07-25T09:44:58.129Z,68.70
2022-07-25T09:47:25.198Z,67.60
2022-07-25T09:49:52.363Z,69.30
2022-07-25T09:52:19.579Z,67.00
2022-07-25T09:54:46.407Z,67.20
2022-07-25T09:57:13.374Z,67.90
2022-07-25T09:59:40.940Z,66.40
2022-07-25T10:02:12.467Z,67.20
2022-07-25T10:04:42.395Z,67.70
2022-07-25T10:07:14.003Z,68.30
2022-07-25T10:09:54.342Z,69.50
2022-07-25T10:12:21.982Z,69.10
2022-07-25T10:15:24.539Z,68.10
2022-07-25T10:18:06.756Z,70.00
2022-07-25T10:20:34.508Z,68.80
2022-07-25T10:23:01.392Z,68.60
2022-07-25T10:25:28.342Z,70.40
2022-07-25T10:28:01.197Z,69.60
2022-07-25T10:30:36.418Z,69.50
2022-07-25T10:33:21.436Z,70.10
2022-07-25T10:35:50.687Z,70.00
2022-07-25T10:38:25.121Z,70.60
2022-07-25T10:40:52.584Z,69.60
2022-07-25T10:43:21.686Z,69.10
2022-07-25T10:45:52.800Z,71.90
2022-07-25T10:48:32.554Z,70.00
2022-07-25T10:51:00.478Z,70.70
2022-07-25T10:53:38.582Z,72.00
2022-07-25T10:56:09.890Z,71.30
2022-07-25T10:59:02.811Z,71.30
2022-07-25T11:01:32.782Z,72.50
2022-07-25T11:04:02.490Z,70.00
2022-07-25T11:06:33.861Z,68.40
2022-07-25T11:09:02.025Z,66.80
2022-07-25T11:11:36.297Z,67.60
2022-07-25T11:14:05.061Z,67.80
2022-07-25T11:16:32.045Z,68.80
2022-07-25T11:18:59.046Z,72.30
2022-07-25T11:21:28.107Z,71.30
2022-07-25T11:23:55.021Z,69.40
2022-07-25T11:26:21.918Z,69.00
2022-07-25T11:28:50.590Z,68.30
2022-07-25T11:31:26.112Z,74.90
2022-07-25T11:33:53.069Z,71.90
2022-07-25T11:36:20.106Z,72.40
2022-07-25T11:38:49.102Z,70.60
2022-07-25T11:41:16.045Z,71.90
2022-07-25T11:43:51.163Z,71.20
2022-07-25T11:46:18.453Z,74.00
2022-07-25T11:48:45.596Z,73.00
2022-07-25T11:51:19.656Z,70.30
2022-07-25T11:53:50.356Z,72.90
2022-07-25T11:59:10.246Z,74.10
2022-07-25T12:01:41.299Z,71.80
2022-07-25T12:04:12.956Z,73.10
2022-07-25T12:06:41.245Z,69.70
2022-07-25T12:09:18.863Z,72.70
2022-07-25T12:11:47.914Z,70.00
2022-07-25T12:14:15.341Z,72.50
2022-07-25T12:16:42.468Z,70.70
2022-07-25T12:19:20.339Z,71.10
2022-07-25T12:21:49.685Z,74.60
2022-07-25T12:24:16.607Z,71.00
2022-07-25T12:26:45.934Z,70.00
2022-07-25T12:29:12.801Z,68.30
2022-07-25T12:31:39.680Z,70.20
2022-07-25T12:34:11.141Z,71.00
2022-07-25T12:36:44.168Z,70.40
2022-07-25T12:39:12.028Z,71.20
2022-07-25T12:41:40.045Z,69.40
2022-07-25T12:44:06.931Z,71.60
2022-07-25T12:46:34.164Z,69.90
2022-07-25T12:49:01.095Z,69.10
2022-07-25T12:51:28.090Z,69.10
2022-07-25T12:53:54.932Z,71.30
2022-07-25T12:56:21.896Z,68.20
2022-07-25T12:58:50.375Z,66.70
2022-07-25T13:01:19.596Z,68.60
2022-07-25T13:03:46.510Z,70.60
2022-07-25T13:06:13.669Z,67.10
2022-07-25T13:08:40.513Z,67.50
2022-07-25T13:11:07.356Z,68.30
2022-07-25T13:13:34.275Z,67.20
2022-07-25T13:16:01.100Z,66.30
2022-07-25T13:18:30.663Z,65.90
2022-07-25T13:20:57.687Z,65.40
2022-07-25T13:23:26.849Z,64.30
2022-07-25T13:26:00.393Z,68.60
2022-07-25T13:28:27.572Z,69.40
2022-07-25T13:31:01.671Z,67.40
2022-07-25T13:33:28.898Z,67.40
2022-07-25T13:35:55.710Z,71.60
2022-07-25T13:38:22.680Z,65.90
2022-07-25T13:40:49.723Z,66.70
2022-07-25T13:43:19.122Z,66.60
2022-07-25T13:45:46.442Z,66.90
2022-07-25T13:48:30.866Z,65.40
2022-07-25T13:50:59.232Z,65.70
2022-07-25T13:53:29.910Z,67.90
2022-07-25T13:56:00.383Z,64.50
2022-07-25T13:58:30.231Z,66.00
2022-07-25T14:00:57.260Z,66.10
2022-07-25T14:03:24.194Z,62.70
2022-07-25T14:05:51.305Z,64.60
2022-07-25T14:08:20.896Z,63.10
2022-07-25T14:10:47.925Z,59.10
2022-07-25T14:13:14.746Z,57.80
2022-07-25T14:15:43.776Z,61.50
2022-07-25T14:18:12.855Z,56.70
2022-07-25T14:20:39.701Z,54.30
2022-07-25T14:23:08.839Z,54.30
2022-07-25T14:25:35.867Z,53.00
2022-07-25T14:28:02.897Z,49.30
2022-07-25T14:30:29.816Z,50.10
2022-07-25T14:33:00.881Z,52.70
2022-07-25T14:35:32.344Z,49.90
2022-07-25T14:37:59.934Z,51.90
2022-07-25T14:40:29.448Z,53.70
2022-07-25T14:42:58.766Z,53.30
2022-07-25T14:45:25.639Z,54.90
2022-07-25T14:47:54.764Z,55.90
2022-07-25T14:50:21.807Z,55.50
2022-07-25T14:52:51.068Z,56.90
2022-07-25T14:55:18.781Z,57.20
2022-07-25T14:57:47.978Z,58.10
2022-07-25T15:00:17.170Z,59.60
2022-07-25T15:02:44.080Z,58.10
2022-07-25T15:05:10.925Z,57.70
2022-07-25T15:07:40.526Z,59.70
2022-07-25T15:10:09.805Z,60.60
2022-07-25T15:12:36.760Z,62.00
2022-07-25T15:15:06.014Z,63.50
2022-07-25T15:17:33.437Z,61.30
2022-07-25T15:20:00.587Z,63.40
2022-07-25T15:22:32.428Z,63.70
2022-07-25T15:25:45.361Z,66.80
2022-07-25T15:27:49.407Z,63.00
2022-07-25T15:30:16.339Z,61.90
2022-07-25T15:32:43.608Z,62.10
2022-07-25T15:35:10.561Z,66.50
2022-07-25T15:37:37.394Z,63.60
2022-07-25T15:40:07.284Z,62.50
2022-07-25T15:42:34.776Z,65.80
2022-07-25T15:45:31.613Z,63.00
2022-07-25T15:47:54.434Z,63.20
2022-07-25T15:50:23.552Z,63.70
2022-07-25T15:52:50.340Z,63.20
2022-07-25T15:55:17.157Z,65.00
2022-07-25T15:57:44.129Z,62.70
2022-07-25T16:00:11.422Z,62.50
2022-07-25T16:02:38.251Z,63.40
2022-07-25T16:05:10.122Z,64.80
2022-07-25T16:07:37.130Z,63.90
2022-07-25T16:10:06.729Z,62.80
2022-07-25T16:12:33.677Z,65.10
2022-07-25T16:15:03.300Z,63.30
2022-07-25T16:17:31.778Z,60.70
2022-07-25T16:19:58.649Z,60.60
2022-07-25T16:22:25.586Z,60.40
2022-07-25T16:24:55.068Z,64.00
2022-07-25T16:27:21.993Z,62.70
2022-07-25T16:29:48.857Z,63.90
2022-07-25T16:32:15.780Z,64.50
2022-07-25T16:34:42.668Z,66.10
2022-07-25T16:37:14.397Z,65.70
2022-07-25T16:39:43.789Z,65.10
2022-07-25T16:42:15.517Z,63.60
2022-07-25T16:44:45.218Z,63.60
2022-07-25T16:47:12.126Z,64.90
2022-07-25T16:49:39.105Z,62.00
2022-07-25T16:52:06.606Z,61.10
2022-07-25T16:54:35.619Z,63.70
2022-07-25T16:57:04.967Z,65.20
2022-07-25T16:59:33.987Z,67.60
2022-07-25T17:02:03.972Z,70.10
2022-07-25T17:04:31.086Z,73.10
2022-07-25T17:06:58.222Z,73.50
2022-07-25T17:09:27.274Z,74.10
2022-07-25T17:11:54.184Z,74.60
2022-07-25T17:14:23.972Z,75.30
2022-07-25T17:16:53.211Z,77.80
2022-07-25T17:19:20.102Z,76.70
2022-07-25T17:21:47.154Z,77.50
2022-07-25T17:24:16.233Z,78.90
2022-07-25T17:26:43.398Z,91.90
2022-07-25T17:29:10.688Z,91.80
2022-07-25T17:31:40.505Z,96.30
2022-07-25T17:34:07.476Z,93.90
2022-07-25T17:36:36.817Z,96.00
2022-07-25T17:39:04.008Z,97.00
2022-07-25T17:41:33.325Z,97.40
2022-07-25T17:44:00.260Z,98.40
2022-07-25T17:46:32.084Z,99.70
2022-07-25T17:48:59.314Z,99.90
2022-07-25T17:51:28.485Z,99.90
2022-07-25T17:53:57.864Z,99.90
2022-07-25T17:56:24.687Z,99.90
2022-07-25T17:58:53.891Z,99.90
2022-07-25T18:01:20.818Z,99.90
2022-07-25T18:03:47.794Z,99.90
2022-07-25T18:06:16.817Z,99.90
2022-07-25T18:08:43.736Z,99.90
2022-07-25T18:11:10.804Z,99.90
2022-07-25T18:13:37.923Z,99.90
2022-07-25T18:16:07.484Z,99.90
2022-07-25T18:18:37.340Z,99.90
2022-07-25T18:21:04.408Z,99.90
2022-07-25T18:23:31.282Z,99.90
2022-07-25T18:25:58.307Z,99.90
2022-07-25T18:28:28.077Z,99.90
2022-07-25T18:30:57.175Z,99.90
2022-07-25T18:33:24.505Z,99.90
2022-07-25T18:35:53.741Z,99.90
2022-07-25T18:38:20.681Z,99.90
2022-07-25T18:40:47.508Z,99.90
2022-07-25T18:43:14.502Z,99.90
2022-07-25T18:45:42.151Z,99.90
2022-07-25T18:48:11.836Z,99.90
2022-07-25T18:50:38.725Z,99.90
2022-07-25T18:53:09.550Z,99.90
2022-07-25T18:55:38.861Z,99.90
2022-07-25T18:58:08.987Z,99.90
2022-07-25T19:00:38.002Z,99.90
2022-07-25T19:03:04.883Z,99.90
2022-07-25T19:05:31.770Z,99.90
2022-07-25T19:08:00.013Z,99.90
2022-07-25T19:10:26.910Z,99.90
2022-07-25T19:12:55.987Z,99.90
2022-07-25T19:15:22.874Z,99.90
2022-07-25T19:17:49.869Z,99.90
2022-07-25T19:20:19.335Z,99.90
2022-07-25T19:22:49.272Z,99.90
2022-07-25T19:25:16.236Z,99.90
2022-07-25T19:27:43.156Z,99.90
2022-07-25T19:30:17.214Z,99.90
2022-07-25T19:32:47.497Z,99.90
2022-07-25T19:35:14.386Z,99.90
2022-07-25T19:37:41.224Z,99.90
2022-07-25T19:40:08.799Z,99.90
2022-07-25T19:42:38.118Z,99.90
2022-07-25T19:45:05.497Z,99.90
2022-07-25T19:47:32.352Z,99.90
2022-07-25T19:49:59.318Z,99.90
2022-07-25T19:52:26.261Z,99.90
2022-07-25T19:54:54.521Z,99.90
2022-07-25T19:57:24.118Z,99.90
2022-07-25T19:59:50.926Z,99.90
2022-07-25T20:02:17.872Z,99.90
2022-07-25T20:04:44.899Z,99.90
2022-07-25T20:07:11.695Z,99.90
2022-07-25T20:09:38.510Z,99.90
2022-07-25T20:12:08.508Z,99.90
2022-07-25T20:14:35.367Z,99.90
2022-07-25T20:17:03.169Z,99.90
2022-07-25T20:19:30.158Z,99.90
2022-07-25T20:21:59.992Z,99.90
2022-07-25T20:24:32.534Z,99.90
2022-07-25T20:26:59.428Z,99.90
2022-07-25T20:29:30.907Z,99.90
2022-07-25T20:31:58.337Z,99.90
2022-07-25T20:34:27.550Z,99.90
2022-07-25T20:36:54.419Z,99.90
2022-07-25T20:39:21.364Z,99.90
2022-07-25T20:41:50.461Z,99.90
2022-07-25T20:44:17.524Z,99.90
2022-07-25T20:46:48.504Z,99.90
2022-07-25T20:49:17.870Z,99.90
2022-07-25T20:51:44.856Z,99.90
2022-07-25T20:54:14.468Z,99.90
2022-07-25T20:56:41.307Z,99.90
2022-07-25T20:59:08.701Z,99.90
2022-07-25T21:01:37.262Z,99.90
2022-07-25T21:04:07.838Z,99.90
2022-07-25T21:06:35.179Z,99.90
2022-07-25T21:09:04.812Z,99.90
2022-07-25T21:11:31.853Z,99.90
2022-07-25T21:13:58.771Z,99.90
2022-07-25T21:16:27.243Z,99.90
2022-07-25T21:18:55.900Z,99.90
2022-07-25T21:21:23.604Z,99.90
2022-07-25T21:23:51.000Z,99.90
2022-07-25T21:26:18.307Z,99.90
2022-07-25T21:28:45.254Z,99.90
2022-07-25T21:31:14.742Z,99.90
2022-07-25T21:33:42.242Z,99.90
2022-07-25T21:36:11.765Z,99.90
2022-07-25T21:38:38.594Z,99.90
2022-07-25T21:41:08.030Z,99.90
2022-07-25T21:43:39.589Z,99.90
2022-07-25T21:46:06.592Z,99.90
2022-07-25T21:48:52.141Z,99.90
2022-07-25T21:51:23.272Z,99.90
2022-07-25T21:53:52.558Z,99.90
2022-07-25T21:56:19.712Z,99.90
2022-07-25T21:58:46.617Z,99.90
2022-07-25T22:01:13.600Z,99.90
2022-07-25T22:03:40.536Z,99.90
2022-07-25T22:06:07.829Z,99.90
2022-07-25T22:08:34.654Z,99.90
2022-07-25T22:11:16.114Z,99.90
2022-07-25T22:14:00.551Z,99.90
2022-07-25T22:16:29.759Z,99.90
2022-07-25T22:19:01.187Z,99.90
2022-07-25T22:21:28.761Z,99.90
2022-07-25T22:23:55.612Z,99.90
2022-07-25T22:26:27.490Z,99.90
2022-07-25T22:28:59.226Z,99.90
2022-07-25T22:31:29.530Z,99.90
2022-07-25T22:33:56.461Z,99.90
2022-07-25T22:36:23.280Z,99.90
2022-07-25T22:38:50.646Z,99.90
2022-07-25T22:41:22.300Z,99.90
2022-07-25T22:43:57.512Z,99.90
2022-07-25T22:46:30.346Z,99.90
2022-07-25T22:48:58.555Z,99.90
2022-07-25T22:51:26.604Z,99.90
2022-07-25T22:53:53.659Z,99.90
2022-07-25T22:56:20.564Z,99.90
2022-07-25T22:58:48.931Z,99.90
2022-07-25T23:01:19.665Z,99.90
2022-07-25T23:03:47.198Z,99.90
2022-07-25T23:06:17.411Z,99.90
2022-07-25T23:08:44.297Z,99.90
2022-07-25T23:11:11.275Z,99.90
2022-07-25T23:13:40.604Z,99.90
2022-07-25T23:16:10.392Z,99.90
2022-07-25T23:18:38.040Z,99.90
2022-07-25T23:21:05.094Z,99.90
2022-07-25T23:23:31.977Z,99.90
2022-07-25T23:26:01.154Z,99.90
2022-07-25T23:28:28.189Z,99.90
2022-07-25T23:30:55.068Z,99.90
2022-07-25T23:33:25.849Z,99.90
2022-07-25T23:35:55.745Z,99.90
2022-07-25T23:38:24.785Z,99.90
2022-07-25T23:40:54.046Z,99.90
2022-07-25T23:43:34.805Z,99.90
2022-07-25T23:46:07.747Z,99.90
2022-07-25T23:48:36.941Z,99.90
2022-07-25T23:51:03.982Z,99.90
2022-07-25T23:53:33.642Z,99.90
2022-07-25T23:56:03.280Z,99.90
2022-07-25T23:58:34.672Z,99.90
